sensor_id;sensor_type;location;lat;lon;timestamp;pressure;altitude;pressure_sealevel;temperature;humidity
26443;BME280;5563;52.296;6.806;2023-03-14T00:00:35;98779.00;;;11.19;76.03
26443;BME280;5563;52.296;6.806;2023-03-14T00:03:25;98796.81;;;11.26;76.08
26443;BME280;5563;52.296;6.806;2023-03-14T00:06:04;98795.72;;;11.13;75.98
26443;BME280;5563;52.296;6.806;2023-03-14T00:08:44;98802.34;;;11.17;76.03
26443;BME280;5563;52.296;6.806;2023-03-14T00:11:20;98777.91;;;11.05;75.74
26443;BME280;5563;52.296;6.806;2023-03-14T00:13:51;98774.75;;;11.10;75.90
26443;BME280;5563;52.296;6.806;2023-03-14T00:16:26;98769.22;;;11.11;75.96
26443;BME280;5563;52.296;6.806;2023-03-14T00:19:07;98781.69;;;11.19;75.89
26443;BME280;5563;52.296;6.806;2023-03-14T00:27:04;98756.44;;;11.07;76.20
26443;BME280;5563;52.296;6.806;2023-03-14T00:29:45;98743.16;;;10.99;76.17
26443;BME280;5563;52.296;6.806;2023-03-14T00:32:19;98752.09;;;11.06;76.08
26443;BME280;5563;52.296;6.806;2023-03-14T00:34:58;98747.63;;;10.98;76.01
26443;BME280;5563;52.296;6.806;2023-03-14T00:37:35;98738.84;;;10.98;75.91
26443;BME280;5563;52.296;6.806;2023-03-14T00:40:07;98764.00;;;11.18;75.88
26443;BME280;5563;52.296;6.806;2023-03-14T00:42:47;98716.66;;;10.97;75.96
26443;BME280;5563;52.296;6.806;2023-03-14T00:45:17;98718.97;;;11.00;75.62
26443;BME280;5563;52.296;6.806;2023-03-14T00:47:54;98738.56;;;11.07;75.88
26443;BME280;5563;52.296;6.806;2023-03-14T00:50:47;98735.72;;;11.09;75.81
26443;BME280;5563;52.296;6.806;2023-03-14T00:53:22;98724.44;;;11.07;75.93
26443;BME280;5563;52.296;6.806;2023-03-14T00:56:06;98705.16;;;10.97;75.79
26443;BME280;5563;52.296;6.806;2023-03-14T00:58:56;98745.31;;;11.18;75.65
26443;BME280;5563;52.296;6.806;2023-03-14T01:01:27;98724.25;;;11.08;75.73
26443;BME280;5563;52.296;6.806;2023-03-14T01:04:02;98711.50;;;10.96;75.49
26443;BME280;5563;52.296;6.806;2023-03-14T01:06:44;98744.19;;;11.12;75.64
26443;BME280;5563;52.296;6.806;2023-03-14T01:09:21;98732.47;;;10.99;75.72
26443;BME280;5563;52.296;6.806;2023-03-14T01:11:51;98714.06;;;10.89;75.92
26443;BME280;5563;52.296;6.806;2023-03-14T01:14:34;98748.78;;;11.04;75.99
26443;BME280;5563;52.296;6.806;2023-03-14T01:17:11;98739.63;;;10.98;76.59
26443;BME280;5563;52.296;6.806;2023-03-14T01:19:50;98756.06;;;10.87;77.78
26443;BME280;5563;52.296;6.806;2023-03-14T01:22:18;98777.13;;;10.74;78.36
26443;BME280;5563;52.296;6.806;2023-03-14T01:24:55;98771.94;;;10.50;79.92
26443;BME280;5563;52.296;6.806;2023-03-14T01:28:09;98771.28;;;10.40;80.67
26443;BME280;5563;52.296;6.806;2023-03-14T01:48:16;98736.13;;;10.06;82.09
26443;BME280;5563;52.296;6.806;2023-03-14T01:50:50;98746.09;;;10.12;81.87
26443;BME280;5563;52.296;6.806;2023-03-14T01:53:36;98743.56;;;10.18;81.68
26443;BME280;5563;52.296;6.806;2023-03-14T01:56:10;98761.72;;;10.23;81.97
26443;BME280;5563;52.296;6.806;2023-03-14T01:58:54;98743.44;;;10.12;81.49
26443;BME280;5563;52.296;6.806;2023-03-14T02:01:33;98753.72;;;10.23;81.29
26443;BME280;5563;52.296;6.806;2023-03-14T02:04:14;98718.66;;;10.03;81.60
26443;BME280;5563;52.296;6.806;2023-03-14T02:06:58;98745.91;;;10.21;81.02
26443;BME280;5563;52.296;6.806;2023-03-14T02:09:37;98726.00;;;10.09;80.46
26443;BME280;5563;52.296;6.806;2023-03-14T02:12:16;98730.59;;;10.15;80.35
26443;BME280;5563;52.296;6.806;2023-03-14T02:14:50;98727.28;;;10.13;80.17
26443;BME280;5563;52.296;6.806;2023-03-14T02:23:04;98712.16;;;10.14;78.55
26443;BME280;5563;52.296;6.806;2023-03-14T02:26:03;98700.00;;;10.11;78.03
26443;BME280;5563;52.296;6.806;2023-03-14T02:28:42;98706.16;;;10.12;77.88
26443;BME280;5563;52.296;6.806;2023-03-14T02:31:16;98722.44;;;10.17;77.12
26443;BME280;5563;52.296;6.806;2023-03-14T02:33:44;98744.22;;;10.28;76.77
26443;BME280;5563;52.296;6.806;2023-03-14T02:36:22;98715.34;;;10.09;76.65
26443;BME280;5563;52.296;6.806;2023-03-14T02:39:05;98747.88;;;10.27;76.98
26443;BME280;5563;52.296;6.806;2023-03-14T02:41:45;98739.56;;;10.22;77.39
26443;BME280;5563;52.296;6.806;2023-03-14T02:44:15;98741.44;;;10.14;77.88
26443;BME280;5563;52.296;6.806;2023-03-14T02:46:57;98757.09;;;10.09;77.60
26443;BME280;5563;52.296;6.806;2023-03-14T02:53:17;98757.16;;;9.68;79.51
26443;BME280;5563;52.296;6.806;2023-03-14T03:03:26;98740.56;;;9.42;79.79
26443;BME280;5563;52.296;6.806;2023-03-14T03:28:21;98760.31;;;8.92;84.94
26443;BME280;5563;52.296;6.806;2023-03-14T03:48:20;98749.28;;;8.62;86.34
26443;BME280;5563;52.296;6.806;2023-03-14T03:58:55;98748.78;;;8.59;86.90
26443;BME280;5563;52.296;6.806;2023-03-14T04:33:41;98732.56;;;8.70;85.27
26443;BME280;5563;52.296;6.806;2023-03-14T05:08:26;98707.84;;;8.94;84.44
26443;BME280;5563;52.296;6.806;2023-03-14T06:18:27;98648.53;;;8.93;82.08
26443;BME280;5563;52.296;6.806;2023-03-14T06:22:03;98672.94;;;9.05;82.13
26443;BME280;5563;52.296;6.806;2023-03-14T06:59:48;98674.09;;;8.70;85.54
26443;BME280;5563;52.296;6.806;2023-03-14T07:06:53;98700.53;;;8.80;86.20
26443;BME280;5563;52.296;6.806;2023-03-14T07:29:52;98705.84;;;8.80;87.84
26443;BME280;5563;52.296;6.806;2023-03-14T08:18:09;98840.84;;;8.84;89.65
26443;BME280;5563;52.296;6.806;2023-03-14T08:20:51;98842.84;;;8.40;86.86
26443;BME280;5563;52.296;6.806;2023-03-14T08:23:18;98842.13;;;8.05;86.94
26443;BME280;5563;52.296;6.806;2023-03-14T08:34:17;98867.75;;;7.35;88.69
26443;BME280;5563;52.296;6.806;2023-03-14T08:40:32;98880.16;;;7.17;88.67
26443;BME280;5563;52.296;6.806;2023-03-14T08:43:15;98882.59;;;7.11;89.02
26443;BME280;5563;52.296;6.806;2023-03-14T08:46:00;98879.16;;;7.01;88.87
26443;BME280;5563;52.296;6.806;2023-03-14T08:48:45;98914.28;;;7.03;89.23
26443;BME280;5563;52.296;6.806;2023-03-14T08:51:19;98938.50;;;7.08;89.36
26443;BME280;5563;52.296;6.806;2023-03-14T08:53:46;98953.34;;;7.01;89.50
26443;BME280;5563;52.296;6.806;2023-03-14T08:56:47;98976.94;;;6.94;89.28
26443;BME280;5563;52.296;6.806;2023-03-14T08:59:28;98984.53;;;6.80;88.91
26443;BME280;5563;52.296;6.806;2023-03-14T09:02:11;98981.09;;;6.60;88.84
26443;BME280;5563;52.296;6.806;2023-03-14T09:04:46;98983.41;;;6.36;88.60
26443;BME280;5563;52.296;6.806;2023-03-14T09:07:20;98996.22;;;6.21;89.16
26443;BME280;5563;52.296;6.806;2023-03-14T09:09:50;99008.25;;;6.06;88.90
26443;BME280;5563;52.296;6.806;2023-03-14T09:12:41;99039.97;;;5.97;88.43
26443;BME280;5563;52.296;6.806;2023-03-14T09:15:08;99049.22;;;5.63;87.78
26443;BME280;5563;52.296;6.806;2023-03-14T09:17:45;99067.00;;;5.51;88.00
26443;BME280;5563;52.296;6.806;2023-03-14T09:20:18;99066.41;;;5.38;88.28
26443;BME280;5563;52.296;6.806;2023-03-14T09:26:33;99098.06;;;5.19;88.76
26443;BME280;5563;52.296;6.806;2023-03-14T09:29:55;99110.25;;;5.10;88.51
26443;BME280;5563;52.296;6.806;2023-03-14T09:32:38;99128.75;;;5.10;88.31
26443;BME280;5563;52.296;6.806;2023-03-14T09:35:16;99126.16;;;4.99;87.32
26443;BME280;5563;52.296;6.806;2023-03-14T09:37:52;99165.72;;;4.90;87.72
26443;BME280;5563;52.296;6.806;2023-03-14T09:46:02;99217.50;;;4.81;87.65
26443;BME280;5563;52.296;6.806;2023-03-14T09:48:51;99221.09;;;4.80;87.30
26443;BME280;5563;52.296;6.806;2023-03-14T10:47:15;99451.06;;;5.94;81.96
26443;BME280;5563;52.296;6.806;2023-03-14T10:50:24;99458.13;;;6.55;81.47
26443;BME280;5563;52.296;6.806;2023-03-14T10:53:03;99466.41;;;7.11;81.17
26443;BME280;5563;52.296;6.806;2023-03-14T10:55:41;99480.03;;;7.56;78.05
26443;BME280;5563;52.296;6.806;2023-03-14T10:58:26;99475.03;;;7.53;75.62
26443;BME280;5563;52.296;6.806;2023-03-14T11:01:14;99489.38;;;7.50;74.17
26443;BME280;5563;52.296;6.806;2023-03-14T11:04:00;99495.25;;;7.44;76.17
26443;BME280;5563;52.296;6.806;2023-03-14T11:47:15;99669.63;;;6.49;77.26
26443;BME280;5563;52.296;6.806;2023-03-14T14:16:36;100088.13;;;8.85;47.69
26443;BME280;5563;52.296;6.806;2023-03-14T14:40:51;100158.59;;;8.58;45.92
26443;BME280;5563;52.296;6.806;2023-03-14T17:27:20;100540.56;;;4.80;55.98
26443;BME280;5563;52.296;6.806;2023-03-14T18:00:35;100619.75;;;4.52;59.62
26443;BME280;5563;52.296;6.806;2023-03-14T18:07:44;100628.56;;;4.36;59.82
26443;BME280;5563;52.296;6.806;2023-03-14T18:19:17;100633.16;;;4.03;61.30
26443;BME280;5563;52.296;6.806;2023-03-14T18:30:19;100659.13;;;3.95;60.97
26443;BME280;5563;52.296;6.806;2023-03-14T18:40:41;100678.25;;;3.83;61.76
26443;BME280;5563;52.296;6.806;2023-03-14T18:43:55;100681.25;;;3.77;62.01
26443;BME280;5563;52.296;6.806;2023-03-14T18:51:44;100699.53;;;3.65;62.57
26443;BME280;5563;52.296;6.806;2023-03-14T18:55:42;100710.50;;;3.57;62.58
26443;BME280;5563;52.296;6.806;2023-03-14T18:58:53;100715.16;;;3.52;63.11
26443;BME280;5563;52.296;6.806;2023-03-14T19:36:59;100766.81;;;3.39;64.87
26443;BME280;5563;52.296;6.806;2023-03-14T19:40:29;100729.50;;;3.14;65.29
26443;BME280;5563;52.296;6.806;2023-03-14T20:08:34;100761.44;;;2.57;67.13
26443;BME280;5563;52.296;6.806;2023-03-14T20:47:27;100787.66;;;2.22;66.34
26443;BME280;5563;52.296;6.806;2023-03-14T20:51:21;100813.69;;;2.29;66.29
26443;BME280;5563;52.296;6.806;2023-03-14T22:05:29;100859.16;;;1.93;68.12
26443;BME280;5563;52.296;6.806;2023-03-14T22:30:19;100852.28;;;1.91;67.55
26443;BME280;5563;52.296;6.806;2023-03-14T22:36:27;100874.97;;;2.12;67.80
26443;BME280;5563;52.296;6.806;2023-03-14T22:53:15;100842.13;;;2.20;69.00
26443;BME280;5563;52.296;6.806;2023-03-14T22:56:37;100888.19;;;2.48;68.81
26443;BME280;5563;52.296;6.806;2023-03-14T22:59:55;100881.00;;;2.51;69.45
26443;BME280;5563;52.296;6.806;2023-03-14T23:03:03;100912.94;;;2.62;69.58
26443;BME280;5563;52.296;6.806;2023-03-14T23:06:20;100909.16;;;2.68;70.26
26443;BME280;5563;52.296;6.806;2023-03-14T23:09:15;100914.28;;;2.71;70.55
26443;BME280;5563;52.296;6.806;2023-03-14T23:12:24;100918.59;;;2.72;70.78
26443;BME280;5563;52.296;6.806;2023-03-14T23:15:36;100935.34;;;2.71;71.51
26443;BME280;5563;52.296;6.806;2023-03-14T23:18:56;100947.44;;;2.75;72.50
26443;BME280;5563;52.296;6.806;2023-03-14T23:22:02;100950.28;;;2.70;73.94
26443;BME280;5563;52.296;6.806;2023-03-14T23:25:27;100961.44;;;2.57;76.97
26443;BME280;5563;52.296;6.806;2023-03-14T23:28:47;100933.75;;;2.30;77.55
26443;BME280;5563;52.296;6.806;2023-03-14T23:31:39;100942.94;;;2.21;78.79
26443;BME280;5563;52.296;6.806;2023-03-14T23:34:53;100958.78;;;2.19;79.35
26443;BME280;5563;52.296;6.806;2023-03-14T23:41:54;100927.00;;;1.85;80.22
26443;BME280;5563;52.296;6.806;2023-03-14T23:45:29;100930.56;;;1.84;81.37
26443;BME280;5563;52.296;6.806;2023-03-14T23:49:21;100946.44;;;1.81;82.22
26443;BME280;5563;52.296;6.806;2023-03-14T23:52:53;100917.69;;;1.58;82.52
